ADDS METAR Data INFO
IDs: Format: Raw Decoded Include TAF

Data at: 1215 UTC 18 Nov 2017

METAR for:KIND (Indianapolis Intl, IN, US)
Text:KIND 181154Z 21016G24KT 10SM OVC025 16/12 A2950 RMK AO2 PK WND 22026/1116 SLP987 60001 70005 T01610122 10161 20106 58013
Temperature: 16.1°C ( 61°F)
Dewpoint: 12.2°C ( 54°F) [RH = 78%]
Pressure (altimeter):29.50 inches Hg ( 999.1 mb) [Sea level pressure: 998.7 mb]
Winds:from the SSW (210 degrees) at 18 MPH (16 knots; 8.2 m/s) gusting to 28 MPH (24 knots; 12.3 m/s)
Visibility:10 or more sm (16+ km)
Ceiling:2500 feet AGL
Clouds: overcast cloud deck at 2500 feet AGL